메인 페이지
METAR-TAF:

METAR-TAF

공항 :

다치카와, 일본

위도: 35-42N, 경도: 139-24E, 고도: 95m

현재 날씨관측

예보는 8 시간 12분 전, 02:24시(UTC)에 발표되었습니다.
15kt, 순간 최대 풍속 26kt북북서풍과 북동풍을 오가는
온도 9°C
습도 21%
기압 1025 hPa
시정 10km 이상
고도 3000ft 상공 구름 조금

METAR: RJTC 150224Z 01015G26KT 340V040 9999 FEW030 09/M12 Q1025 RMK 1CU030 A3026 W/E

시각: 19:36 (10:36 UTC)


TAF: 누락

4,000개 이상의 공항 관측 자료 및 예보 (METAR 및 TAF 보고).

지도상에서 검색 가능한 기상관측소가 노란 점과 빨간 점으로 표시되어 있습니다.

기상관측소 명을 보려면 표시 위로 마우스를 이동하세요.

날씨 관측과 예보를 보려면 클릭하세요.

지도 변경 : 확대하려면 엑스 표시가 있는 녹색 버튼, 축소하려면 빼기 표시가 있는 녹색 버튼, 다음 페이지의 지도를 보려면 녹색 화살표를 클릭하세요.


METAR-TAF: